Time;durP1;ratioP1;P1;durP2;ratioP2;P2;SDS_P1;SDS_P2;PMS_P1;PMS_P2;Temp;Humidity;BMP_temperature;BMP_pressure;BME280_temperature;BME280_humidity;BME280_pressure;Samples;Min_cycle;Max_cycle;Signal;HPM_P1;HPM_P2
2023/01/13 00:01:31;;;;;;;3.30;1.00;;;;;;;19.13;46.32;100353.19;5004490;28;20355;-67
2023/01/13 00:03:57;;;;;;;3.95;1.23;;;;;;;19.13;46.47;100361.13;5001756;28;21036;-66
2023/01/13 00:06:28;;;;;;;3.72;0.98;;;;;;;19.07;46.42;100354.59;4995424;28;20026;-67
2023/01/13 00:08:53;;;;;;;5.75;0.95;;;;;;;19.10;46.35;100361.41;4984663;28;20088;-66
2023/01/13 00:11:19;;;;;;;2.30;1.05;;;;;;;19.06;46.21;100352.94;4993466;28;20038;-67
2023/01/13 00:13:45;;;;;;;4.70;0.90;;;;;;;19.08;46.48;100366.00;5003897;28;20030;-69
2023/01/13 00:16:14;;;;;;;4.22;1.17;;;;;;;19.07;45.97;100362.50;4993906;28;20066;-67
2023/01/13 00:18:39;;;;;;;5.43;1.38;;;;;;;19.04;46.17;100354.88;4984301;28;20038;-67
2023/01/13 00:21:13;;;;;;;4.40;1.25;;;;;;;19.00;46.29;100348.22;4984400;28;20042;-67
2023/01/13 00:23:40;;;;;;;4.20;1.35;;;;;;;19.04;46.11;100349.59;4995092;28;20045;-66
2023/01/13 00:26:08;;;;;;;5.82;1.50;;;;;;;19.01;46.07;100334.88;5000021;28;20038;-67
2023/01/13 00:28:34;;;;;;;5.30;1.20;;;;;;;19.00;45.95;100327.09;4991686;28;20034;-67
2023/01/13 00:31:07;;;;;;;4.80;1.50;;;;;;;19.01;45.62;100326.13;4996015;28;20049;-66
2023/01/13 00:33:33;;;;;;;5.53;1.20;;;;;;;18.98;45.90;100326.41;4990380;28;20073;-68
2023/01/13 00:35:59;;;;;;;4.75;1.40;;;;;;;18.97;45.91;100325.56;4995290;28;20087;-69
2023/01/13 00:38:26;;;;;;;5.35;1.35;;;;;;;18.99;45.67;100323.63;5001271;28;20081;-69
2023/01/13 00:41:02;;;;;;;5.65;1.27;;;;;;;18.94;45.79;100310.00;4993701;28;20034;-69
2023/01/13 00:43:31;;;;;;;3.50;1.10;;;;;;;18.97;45.57;100306.25;4989394;28;20038;-67
2023/01/13 00:45:57;;;;;;;4.63;1.30;;;;;;;18.95;45.67;100311.69;4995850;28;20057;-68
2023/01/13 00:48:23;;;;;;;5.63;1.40;;;;;;;18.91;45.61;100296.25;4997222;28;20513;-70
2023/01/13 00:51:00;;;;;;;7.57;1.60;;;;;;;18.92;45.61;100304.03;4992014;28;20072;-66
2023/01/13 00:53:27;;;;;;;4.82;1.35;;;;;;;18.93;45.65;100305.72;4993801;28;20688;-69
2023/01/13 00:56:03;;;;;;;7.55;1.83;;;;;;;18.93;45.48;100304.84;4986815;28;20034;-67
2023/01/13 00:58:31;;;;;;;6.43;1.48;;;;;;;18.89;45.37;100301.69;4993037;28;20041;-66
2023/01/13 01:01:05;;;;;;;7.65;1.77;;;;;;;18.88;45.34;100304.47;5001579;28;20037;-68
2023/01/13 01:03:31;;;;;;;7.40;1.83;;;;;;;18.88;45.41;100301.81;4997527;28;20037;-66
2023/01/13 01:06:02;;;;;;;5.35;1.80;;;;;;;18.91;44.99;100309.47;4993236;28;20072;-68
2023/01/13 01:08:27;;;;;;;6.63;1.58;;;;;;;18.89;45.29;100314.06;4991912;28;20124;-67
2023/01/13 01:11:00;;;;;;;5.00;2.37;;;;;;;18.86;45.17;100317.81;4994581;28;20156;-68
2023/01/13 01:13:25;;;;;;;6.18;1.58;;;;;;;18.88;45.22;100320.31;4994507;28;20287;-68
2023/01/13 01:15:50;;;;;;;6.03;1.83;;;;;;;18.84;44.89;100311.84;4992848;28;20038;-67
2023/01/13 01:18:16;;;;;;;6.53;1.40;;;;;;;18.84;45.11;100325.88;4997525;28;20291;-67
2023/01/13 01:20:41;;;;;;;6.50;1.60;;;;;;;18.84;45.33;100328.50;4988501;28;20022;-66
2023/01/13 01:23:06;;;;;;;4.87;1.40;;;;;;;18.80;44.99;100315.69;4995886;28;21214;-67
2023/01/13 01:25:32;;;;;;;7.38;1.85;;;;;;;18.80;45.00;100310.41;4996536;28;20279;-69
2023/01/13 01:27:57;;;;;;;6.43;1.63;;;;;;;18.83;45.05;100321.56;4992777;28;20030;-67
2023/01/13 01:30:22;;;;;;;5.22;1.33;;;;;;;18.80;45.03;100315.69;4989594;28;20545;-66
2023/01/13 01:32:48;;;;;;;7.23;1.67;;;;;;;18.82;44.96;100322.50;4990763;28;20494;-68
2023/01/13 01:35:13;;;;;;;6.05;1.67;;;;;;;18.79;45.02;100319.34;4996680;28;20267;-67
2023/01/13 01:37:38;;;;;;;5.10;1.40;;;;;;;18.78;44.80;100313.19;4990912;28;20398;-67
2023/01/13 01:40:04;;;;;;;5.03;1.45;;;;;;;18.77;44.82;100319.47;4997753;28;20034;-68
2023/01/13 01:45:18;;;;;;;9.23;1.77;;;;;;;18.78;44.61;100333.50;5001180;28;20403;-68
2023/01/13 01:47:47;;;;;;;5.25;1.70;;;;;;;18.77;44.64;100326.53;4989885;28;20117;-70
2023/01/13 01:50:12;;;;;;;7.28;1.80;;;;;;;18.77;44.92;100315.97;4998741;28;20034;-65
2023/01/13 01:52:41;;;;;;;5.47;1.40;;;;;;;18.76;44.74;100327.53;5000718;28;21337;-67
2023/01/13 01:55:19;;;;;;;5.72;1.48;;;;;;;18.74;44.93;100317.13;4991512;28;20442;-67
2023/01/13 01:57:51;;;;;;;6.18;1.70;;;;;;;18.70;44.61;100318.34;4994768;28;20080;-67
2023/01/13 02:00:17;;;;;;;7.47;2.35;;;;;;;18.68;44.48;100307.94;4992053;28;20057;-66
2023/01/13 02:02:45;;;;;;;6.88;1.85;;;;;;;18.73;44.35;100331.28;5003810;28;20112;-66
2023/01/13 02:05:10;;;;;;;7.80;1.73;;;;;;;18.70;44.27;100315.72;5001726;28;20129;-67
2023/01/13 02:07:37;;;;;;;8.10;1.67;;;;;;;18.68;44.25;100321.13;4994390;28;20453;-67
2023/01/13 02:10:06;;;;;;;9.93;2.35;;;;;;;18.72;44.27;100315.56;4989910;28;20058;-70
2023/01/13 02:12:32;;;;;;;6.00;1.70;;;;;;;18.68;44.26;100315.03;5001952;28;20438;-68
2023/01/13 02:15:10;;;;;;;5.65;1.50;;;;;;;18.70;44.06;100314.91;5000711;28;20065;-68
2023/01/13 02:18:13;;;;;;;5.75;1.40;;;;;;;18.70;44.15;100312.25;4998293;28;20498;-69
2023/01/13 02:20:49;;;;;;;6.60;1.73;;;;;;;18.63;43.98;100304.91;4982632;28;20491;-68
2023/01/13 02:26:44;;;;;;;7.57;1.90;;;;;;;18.62;43.81;100318.22;4982364;28;20044;-68
2023/01/13 02:32:24;;;;;;;9.38;2.53;;;;;;;18.65;43.88;100329.34;4971003;28;20184;-66
2023/01/13 02:35:02;;;;;;;7.72;1.98;;;;;;;18.61;43.79;100327.09;4988851;28;20034;-69
2023/01/13 02:37:32;;;;;;;8.85;2.10;;;;;;;18.63;43.73;100333.94;4984401;28;20387;-68
2023/01/13 02:40:22;;;;;;;8.70;2.40;;;;;;;18.60;43.89;100318.38;4982006;28;20799;-68
2023/01/13 02:45:57;;;;;;;6.90;1.70;;;;;;;18.62;43.63;100310.31;4988400;28;20058;-67
2023/01/13 02:48:26;;;;;;;7.50;1.55;;;;;;;18.60;43.81;100305.19;4989434;28;20037;-71
2023/01/13 02:51:16;;;;;;;6.72;1.80;;;;;;;18.61;43.80;100306.84;4988803;28;20030;-68
2023/01/13 02:53:51;;;;;;;7.22;1.98;;;;;;;18.59;43.98;100313.22;4988668;28;20072;-67
2023/01/13 02:56:16;;;;;;;5.75;1.88;;;;;;;18.60;43.92;100302.53;5001347;28;20112;-66
2023/01/13 02:58:45;;;;;;;8.80;2.05;;;;;;;18.61;44.05;100300.72;4989612;28;20042;-68
2023/01/13 03:01:11;;;;;;;6.00;1.60;;;;;;;18.58;43.88;100290.44;4983414;28;20038;-66
2023/01/13 03:03:36;;;;;;;8.18;2.08;;;;;;;18.57;43.90;100281.69;4988964;28;20040;-68
2023/01/13 03:06:56;;;;;;;7.03;1.67;;;;;;;18.59;43.93;100289.47;4969762;28;20441;-67
2023/01/13 03:09:28;;;;;;;7.88;2.08;;;;;;;18.56;44.01;100279.22;4996873;28;20042;-67
2023/01/13 03:12:09;;;;;;;9.77;1.92;;;;;;;18.58;44.00;100286.03;5000719;28;20048;-67
2023/01/13 03:14:47;;;;;;;9.63;2.00;;;;;;;18.58;43.92;100288.66;5001312;28;20112;-64
2023/01/13 03:17:26;;;;;;;9.07;1.83;;;;;;;18.57;43.83;100289.63;4985147;28;20034;-68
2023/01/13 03:20:06;;;;;;;10.32;2.42;;;;;;;18.57;43.86;100283.53;4981781;28;20045;-70
2023/01/13 03:22:38;;;;;;;7.45;1.83;;;;;;;18.57;43.72;100273.78;4982019;28;20117;-67
2023/01/13 03:25:12;;;;;;;8.88;1.92;;;;;;;18.55;43.74;100269.63;4985996;28;20120;-69
2023/01/13 03:27:46;;;;;;;8.05;1.83;;;;;;;18.57;43.76;100286.16;4992559;28;20093;-69
2023/01/13 03:30:17;;;;;;;;;;;;;;;18.60;43.49;100278.78;4985875;28;20037;-67
2023/01/13 03:32:48;;;;;;;7.65;2.10;;;;;;;18.54;43.32;100267.97;5001068;28;19913;-70
2023/01/13 03:35:18;;;;;;;8.48;1.85;;;;;;;18.55;43.26;100294.22;4985165;28;20062;-70
2023/01/13 03:37:53;;;;;;;7.82;1.88;;;;;;;18.51;43.27;100279.63;4981845;28;20503;-68
2023/01/13 03:40:32;;;;;;;8.45;1.83;;;;;;;18.50;43.02;100267.44;4999999;28;20109;-69
2023/01/13 03:45:56;;;;;;;6.82;1.58;;;;;;;18.47;42.98;100276.44;4986148;28;20037;-68
2023/01/13 03:48:25;;;;;;;7.60;1.90;;;;;;;18.48;43.03;100277.25;4987210;28;20120;-68
2023/01/13 03:50:52;;;;;;;6.70;1.70;;;;;;;18.47;42.74;100288.81;4989468;28;20026;-71
2023/01/13 03:53:30;;;;;;;8.70;1.50;;;;;;;18.47;42.69;100273.81;5004546;28;20831;-70
2023/01/13 03:56:08;;;;;;;5.95;1.67;;;;;;;18.45;42.58;100273.13;5004503;28;20498;-68
2023/01/13 03:58:41;;;;;;;5.82;1.60;;;;;;;18.44;42.66;100263.53;4988989;28;20030;-69
2023/01/13 04:01:09;;;;;;;5.68;1.38;;;;;;;18.46;42.66;100264.22;4985891;28;20113;-66
2023/01/13 04:03:38;;;;;;;7.22;1.25;;;;;;;18.43;42.73;100264.50;4989349;28;20482;-67
2023/01/13 04:06:28;;;;;;;6.50;1.55;;;;;;;18.44;42.71;100271.44;4994372;28;20042;-67
2023/01/13 04:09:10;;;;;;;6.30;1.63;;;;;;;18.44;42.67;100281.19;4996450;28;20038;-68
2023/01/13 04:11:45;;;;;;;6.07;1.30;;;;;;;18.43;43.12;100285.59;4996070;28;20034;-65
2023/01/13 04:14:13;;;;;;;4.45;1.10;;;;;;;18.42;42.78;100291.00;4995110;28;20042;-69
2023/01/13 04:16:39;;;;;;;5.25;1.23;;;;;;;18.43;42.83;100290.88;4991836;28;20034;-66
2023/01/13 04:19:05;;;;;;;4.35;1.23;;;;;;;18.41;42.79;100284.91;4991253;28;20466;-66
2023/01/13 04:21:31;;;;;;;4.85;1.08;;;;;;;18.42;42.86;100291.00;4987943;28;20506;-65
2023/01/13 04:23:56;;;;;;;5.72;1.10;;;;;;;18.42;43.07;100301.56;4995724;28;20042;-67
2023/01/13 04:26:23;;;;;;;5.18;1.20;;;;;;;18.42;43.09;100299.78;4989911;28;20037;-66
2023/01/13 04:28:48;;;;;;;5.22;1.20;;;;;;;18.40;43.29;100303.53;4988462;28;20034;-66
2023/01/13 04:31:13;;;;;;;4.85;1.17;;;;;;;18.41;43.08;100298.09;4999639;28;20041;-67
2023/01/13 04:33:39;;;;;;;5.47;1.58;;;;;;;18.43;42.88;100314.63;5000849;28;20046;-68
2023/01/13 04:36:05;;;;;;;4.70;1.27;;;;;;;18.40;42.88;100306.97;4989781;28;20085;-69
2023/01/13 04:38:30;;;;;;;5.00;1.33;;;;;;;18.39;43.00;100284.22;4987416;28;20053;-67
2023/01/13 04:40:55;;;;;;;5.13;1.15;;;;;;;18.43;42.79;100300.59;5004161;28;20037;-69
2023/01/13 04:43:20;;;;;;;5.60;1.20;;;;;;;18.38;42.83;100295.75;5003042;28;20038;-70
2023/01/13 04:45:46;;;;;;;6.28;1.52;;;;;;;18.39;42.98;100297.41;4985110;28;20552;-67
2023/01/13 04:48:12;;;;;;;7.32;1.40;;;;;;;18.39;42.88;100305.34;4984254;28;20034;-66
2023/01/13 04:50:37;;;;;;;7.15;1.77;;;;;;;18.40;42.65;100303.53;4987323;28;20030;-67
2023/01/13 04:53:03;;;;;;;5.00;1.52;;;;;;;18.37;42.87;100296.72;4983738;28;20038;-68
2023/01/13 04:55:28;;;;;;;4.55;1.55;;;;;;;18.38;42.68;100295.75;4984533;28;20031;-68
2023/01/13 04:57:53;;;;;;;5.10;1.60;;;;;;;18.39;42.56;100291.28;4983871;28;20026;-68
2023/01/13 05:00:21;;;;;;;5.80;1.30;;;;;;;18.39;42.52;100288.66;5002559;28;20144;-69
2023/01/13 05:02:50;;;;;;;6.95;1.60;;;;;;;18.33;43.09;100283.97;4985177;28;20283;-67
2023/01/13 05:05:16;;;;;;;4.63;1.40;;;;;;;18.35;42.80;100282.84;4986711;28;20501;-66
2023/01/13 05:07:42;;;;;;;4.68;1.70;;;;;;;18.37;42.80;100280.88;4994313;28;20121;-70
2023/01/13 05:10:08;;;;;;;6.13;1.52;;;;;;;18.34;42.80;100278.56;4992471;28;20391;-67
2023/01/13 05:18:01;;;;;;;6.03;1.67;;;;;;;18.32;42.74;100275.19;4996967;28;20112;-68
2023/01/13 05:20:27;;;;;;;6.00;1.60;;;;;;;18.35;43.00;100274.91;4988615;28;20034;-67
2023/01/13 05:25:42;;;;;;;5.80;1.35;;;;;;;18.33;42.79;100283.97;4990755;28;20514;-68
2023/01/13 05:28:08;;;;;;;7.47;1.40;;;;;;;18.30;42.74;100287.69;4990037;28;20034;-69
2023/01/13 05:30:42;;;;;;;6.20;1.48;;;;;;;18.28;42.75;100277.28;4989849;28;20616;-67
2023/01/13 05:33:13;;;;;;;6.60;1.58;;;;;;;18.29;42.68;100293.94;4993167;28;20969;-68
2023/01/13 05:35:40;;;;;;;5.63;1.40;;;;;;;18.29;42.46;100291.31;4991412;28;20045;-68
2023/01/13 05:38:06;;;;;;;5.93;1.50;;;;;;;18.32;42.60;100298.94;4998065;28;20050;-68
2023/01/13 05:43:18;;;;;;;6.57;1.45;;;;;;;18.28;42.38;100289.66;4992351;28;20394;-66
2023/01/13 05:45:46;;;;;;;6.38;1.70;;;;;;;18.29;42.40;100291.31;4990194;28;20074;-65
2023/01/13 05:48:12;;;;;;;4.20;1.20;;;;;;;18.27;42.43;100295.88;4992797;28;20045;-67
2023/01/13 05:50:37;;;;;;;5.85;1.67;;;;;;;18.28;42.51;100316.84;4990765;28;20049;-68
2023/01/13 05:53:03;;;;;;;4.35;1.20;;;;;;;18.26;42.35;100313.53;4990693;28;20204;-68
2023/01/13 05:55:28;;;;;;;6.15;1.70;;;;;;;18.24;42.68;100309.34;4991048;28;20453;-67
2023/01/13 05:57:53;;;;;;;4.63;1.20;;;;;;;18.28;42.55;100316.03;4991854;28;20037;-67
2023/01/13 06:00:19;;;;;;;4.40;1.13;;;;;;;18.25;42.63;100313.66;4990236;28;20752;-66
2023/01/13 06:02:44;;;;;;;6.30;1.45;;;;;;;18.27;42.81;100317.81;4990110;28;20033;-70
2023/01/13 06:05:09;;;;;;;4.32;1.23;;;;;;;18.29;43.14;100318.53;4988817;28;20042;-68
2023/01/13 06:07:35;;;;;;;5.38;1.50;;;;;;;18.30;43.23;100316.72;4991442;28;20034;-69
2023/01/13 06:10:00;;;;;;;5.80;1.30;;;;;;;18.33;43.43;100328.81;4990749;28;20096;-67
2023/01/13 06:12:25;;;;;;;5.18;1.50;;;;;;;18.34;43.31;100328.66;4993789;28;20034;-67
2023/01/13 06:14:50;;;;;;;6.20;1.40;;;;;;;18.36;43.16;100324.09;4994021;28;20039;-71
2023/01/13 06:17:16;;;;;;;5.15;1.23;;;;;;;18.37;43.42;100335.47;4992165;28;20695;-70
2023/01/13 06:19:41;;;;;;;4.95;1.55;;;;;;;18.41;43.38;100337.69;5000623;28;20038;-68
2023/01/13 06:22:20;;;;;;;6.72;1.38;;;;;;;18.44;43.34;100344.50;4993530;28;20042;-66
2023/01/13 06:24:47;;;;;;;5.15;1.10;;;;;;;18.47;43.25;100347.69;4993789;28;20119;-66
2023/01/13 06:27:14;;;;;;;4.60;1.08;;;;;;;18.46;43.23;100346.00;4981943;28;20041;-69
2023/01/13 06:29:40;;;;;;;4.68;1.20;;;;;;;18.54;42.98;100341.84;4986507;28;20037;-68
2023/01/13 06:32:16;;;;;;;5.13;1.30;;;;;;;18.53;43.02;100356.84;4992557;28;20034;-66
2023/01/13 06:34:44;;;;;;;6.80;1.33;;;;;;;18.57;42.97;100352.13;4988467;28;20376;-68
2023/01/13 06:37:12;;;;;;;5.78;1.10;;;;;;;18.58;43.10;100346.72;4989855;28;20065;-69
2023/01/13 06:39:38;;;;;;;3.35;1.00;;;;;;;18.60;42.97;100357.97;4995798;28;20077;-67
2023/01/13 06:44:47;;;;;;;3.10;0.98;;;;;;;18.64;42.75;100358.50;4994428;28;20037;-70
2023/01/13 06:47:13;;;;;;;6.40;1.30;;;;;;;18.68;42.74;100367.81;4985482;28;20037;-66
2023/01/13 06:49:38;;;;;;;4.82;1.30;;;;;;;18.70;42.72;100365.88;5001748;28;20048;-67
2023/01/13 06:52:04;;;;;;;5.35;1.48;;;;;;;18.70;42.61;100363.22;4988188;28;20070;-68
2023/01/13 06:54:29;;;;;;;4.70;1.40;;;;;;;18.75;42.62;100363.63;4995060;28;20054;-68
2023/01/13 06:56:55;;;;;;;5.97;1.30;;;;;;;18.78;42.55;100362.53;5001959;28;20096;-67
2023/01/13 06:59:21;;;;;;;4.18;1.33;;;;;;;18.78;42.43;100365.16;5001827;28;20048;-66
2023/01/13 07:01:46;;;;;;;4.88;1.00;;;;;;;18.78;42.19;100354.63;4996496;28;20039;-67
2023/01/13 07:04:12;;;;;;;6.43;1.15;;;;;;;18.75;42.38;100345.16;4984964;28;20030;-68
2023/01/13 07:06:37;;;;;;;4.45;1.17;;;;;;;18.80;42.39;100366.72;5001207;28;20163;-67
2023/01/13 07:09:03;;;;;;;5.45;1.30;;;;;;;18.77;42.20;100359.06;5000946;28;20237;-69
2023/01/13 07:11:28;;;;;;;5.32;1.50;;;;;;;18.76;42.14;100360.03;5001102;28;20061;-66
2023/01/13 07:16:37;;;;;;;5.97;1.38;;;;;;;18.82;42.28;100380.59;4985624;28;20152;-71
2023/01/13 07:19:02;;;;;;;5.35;1.55;;;;;;;18.80;42.19;100373.78;4985556;28;20558;-68
2023/01/13 07:21:28;;;;;;;4.65;1.25;;;;;;;18.78;42.36;100373.91;4990973;28;20109;-68
2023/01/13 07:23:53;;;;;;;6.40;1.60;;;;;;;18.81;42.07;100391.28;5000607;28;20073;-68
2023/01/13 07:26:18;;;;;;;4.85;1.27;;;;;;;18.79;42.09;100374.78;4985810;28;20276;-68
2023/01/13 07:28:43;;;;;;;5.40;1.40;;;;;;;18.80;42.26;100374.63;5001019;28;20040;-67
2023/01/13 07:31:17;;;;;;;5.28;1.40;;;;;;;18.79;42.23;100378.22;4987748;28;20034;-68
2023/01/13 07:33:43;;;;;;;4.35;1.08;;;;;;;18.80;42.10;100385.19;4997866;28;20034;-66
2023/01/13 07:36:08;;;;;;;5.63;1.30;;;;;;;18.77;42.24;100374.91;4996006;28;20337;-68
2023/01/13 07:38:34;;;;;;;5.57;1.38;;;;;;;18.80;42.12;100374.63;4990743;28;20610;-68
2023/01/13 07:43:30;;;;;;;5.53;1.50;;;;;;;18.79;41.99;100377.41;5004506;28;20087;-68
2023/01/13 07:43:46;;;;;;;5.03;1.20;;;;;;;18.80;42.14;100385.19;5004211;28;20467;-70
2023/01/13 07:46:11;;;;;;;4.53;1.25;;;;;;;18.79;41.98;100391.44;4990511;28;20053;-66
2023/01/13 07:48:37;;;;;;;5.78;1.42;;;;;;;18.77;42.00;100389.91;4995792;28;20405;-68
2023/01/13 07:51:05;;;;;;;6.43;1.38;;;;;;;18.78;41.86;100396.84;5000348;28;20026;-71
2023/01/13 07:53:30;;;;;;;5.88;1.33;;;;;;;18.74;41.83;100396.31;4996460;28;20046;-68
2023/01/13 07:55:57;;;;;;;6.03;1.20;;;;;;;18.74;42.01;100395.44;4997691;28;20041;-71
2023/01/13 07:58:24;;;;;;;7.03;1.50;;;;;;;18.73;42.01;100407.81;5000435;28;20045;-71
2023/01/13 08:00:49;;;;;;;7.28;1.42;;;;;;;18.76;41.83;100409.38;4999904;28;20037;-68
2023/01/13 08:03:14;;;;;;;5.53;1.25;;;;;;;18.69;42.35;100406.41;5004313;28;20585;-68
2023/01/13 08:05:40;;;;;;;4.78;1.33;;;;;;;18.75;42.35;100412.97;4993145;28;20101;-69
2023/01/13 08:08:05;;;;;;;6.25;1.50;;;;;;;18.71;42.23;100401.84;4984806;28;20042;-70
2023/01/13 08:10:31;;;;;;;5.45;1.30;;;;;;;18.71;42.03;100406.28;4987262;28;20099;-70
2023/01/13 08:15:40;;;;;;;7.68;1.60;;;;;;;18.70;42.41;100409.91;5000534;28;20153;-72
2023/01/13 08:18:06;;;;;;;6.18;1.70;;;;;;;18.75;42.58;100420.88;5003702;28;20348;-69
2023/01/13 08:20:31;;;;;;;8.02;1.58;;;;;;;18.76;42.28;100422.56;5002439;28;20088;-73
2023/01/13 08:22:58;;;;;;;6.97;1.48;;;;;;;18.75;42.25;100413.78;4988629;28;20076;-70
2023/01/13 08:25:25;;;;;;;5.43;1.17;;;;;;;18.74;42.19;100420.06;4983936;28;20112;-70
2023/01/13 08:27:50;;;;;;;8.07;1.70;;;;;;;18.75;42.43;100411.16;4987869;28;20034;-68
2023/01/13 08:30:16;;;;;;;6.45;1.65;;;;;;;18.77;42.42;100417.16;4995174;28;20034;-71
2023/01/13 08:32:45;;;;;;;7.25;1.65;;;;;;;18.75;42.62;100415.59;4984082;28;20080;-71
2023/01/13 08:35:11;;;;;;;8.27;2.03;;;;;;;18.73;42.36;100409.63;4998265;28;20406;-70
2023/01/13 08:37:37;;;;;;;6.35;1.75;;;;;;;18.74;42.38;100413.94;4987411;28;20784;-71
2023/01/13 08:40:03;;;;;;;6.95;1.80;;;;;;;18.73;42.50;100407.81;4987016;28;20092;-71
2023/01/13 08:42:29;;;;;;;6.28;1.52;;;;;;;18.77;42.64;100406.59;4997061;28;20042;-70
2023/01/13 08:44:55;;;;;;;7.47;1.80;;;;;;;18.80;42.58;100414.22;4994982;28;20030;-71
2023/01/13 08:47:20;;;;;;;6.97;1.98;;;;;;;18.77;42.74;100411.00;4993704;28;20046;-71
2023/01/13 08:49:45;;;;;;;6.65;1.52;;;;;;;18.81;42.63;100417.69;4994042;28;20034;-71
2023/01/13 08:52:11;;;;;;;7.28;1.70;;;;;;;18.80;42.66;100419.50;5002992;28;20584;-69
2023/01/13 08:54:38;;;;;;;7.82;1.88;;;;;;;18.82;42.79;100412.28;4988015;28;20042;-70
2023/01/13 08:57:03;;;;;;;7.15;1.75;;;;;;;18.84;42.38;100436.75;4987849;28;20072;-69
2023/01/13 08:59:28;;;;;;;7.88;1.90;;;;;;;18.87;42.68;100432.16;4998674;28;20512;-70
2023/01/13 09:01:54;;;;;;;5.20;1.25;;;;;;;18.83;42.44;100434.22;4994263;28;20041;-72
2023/01/13 09:04:22;;;;;;;5.60;1.35;;;;;;;18.88;42.69;100431.19;4983156;28;20039;-69
2023/01/13 09:06:47;;;;;;;7.10;1.73;;;;;;;18.85;42.56;100427.88;4984174;28;20038;-70
2023/01/13 09:09:13;;;;;;;6.18;1.70;;;;;;;18.84;42.62;100426.19;4985517;28;20455;-71
2023/01/13 09:14:28;;;;;;;6.63;1.70;;;;;;;18.83;42.70;100421.88;4982761;28;20042;-67
2023/01/13 09:16:53;;;;;;;5.75;1.70;;;;;;;18.80;42.47;100422.16;4994503;28;20042;-69
2023/01/13 09:19:18;;;;;;;10.00;2.10;;;;;;;18.86;42.29;100426.06;4985008;28;20350;-72
2023/01/13 09:21:44;;;;;;;7.72;2.13;;;;;;;18.90;42.18;100439.81;4990076;28;20532;-71
2023/01/13 09:24:09;;;;;;;9.40;1.70;;;;;;;18.90;42.12;100442.44;4999502;28;20038;-71
2023/01/13 09:26:36;;;;;;;7.50;1.75;;;;;;;18.93;42.18;100463.28;5002126;28;20041;-70
2023/01/13 09:29:01;;;;;;;7.35;2.03;;;;;;;18.91;41.98;100452.88;4992380;28;20041;-71
2023/01/13 09:31:27;;;;;;;8.52;1.70;;;;;;;18.93;42.09;100474.72;4986134;28;20025;-69
2023/01/13 09:36:36;;;;;;;7.13;1.60;;;;;;;18.99;41.91;100468.88;4994568;28;20513;-71
2023/01/13 09:39:02;;;;;;;7.32;1.80;;;;;;;19.03;41.76;100477.34;4995013;28;20140;-73
2023/01/13 09:44:24;;;;;;;8.93;2.10;;;;;;;18.97;41.93;100488.47;4988507;28;20132;-72
2023/01/13 09:46:54;;;;;;;6.80;1.77;;;;;;;18.98;41.72;100483.03;4988942;28;20042;-73
2023/01/13 09:49:32;;;;;;;5.90;1.77;;;;;;;18.97;41.47;100481.38;4989615;28;20038;-70
2023/01/13 09:52:02;;;;;;;7.10;1.88;;;;;;;19.00;41.71;100498.75;4995869;28;20065;-72
2023/01/13 09:54:37;;;;;;;6.72;1.55;;;;;;;18.99;41.53;100492.63;4990903;28;20107;-73
2023/01/13 09:57:09;;;;;;;6.63;2.15;;;;;;;19.01;41.62;100490.69;4989915;28;20038;-70
2023/01/13 09:59:35;;;;;;;7.60;1.90;;;;;;;19.06;41.40;100494.69;4989082;28;20407;-72
2023/01/13 10:02:23;;;;;;;7.78;2.00;;;;;;;19.07;41.16;100496.38;4991967;28;20038;-72
2023/01/13 10:05:23;;;;;;;8.38;1.95;;;;;;;19.08;41.11;100504.16;4985092;28;20486;-70
2023/01/13 10:07:53;;;;;;;8.88;2.05;;;;;;;19.09;41.24;100494.44;4994275;28;20486;-69
2023/01/13 10:10:36;;;;;;;7.18;1.92;;;;;;;19.07;41.45;100494.56;4990885;28;20041;-69
2023/01/13 10:13:13;;;;;;;7.13;2.00;;;;;;;19.11;41.25;100495.97;4983393;28;20100;-69
2023/01/13 10:15:44;;;;;;;6.32;1.60;;;;;;;19.12;41.12;100499.44;4987024;28;20040;-69
2023/01/13 10:18:21;;;;;;;8.55;2.78;;;;;;;19.12;41.37;100500.28;4996304;28;20117;-70
2023/01/13 10:20:55;;;;;;;8.55;2.30;;;;;;;19.10;41.58;100496.94;4999476;28;20041;-70
2023/01/13 10:23:50;;;;;;;10.38;2.28;;;;;;;19.11;41.44;100511.81;4989841;28;20299;-72
2023/01/13 10:26:23;;;;;;;;;;;;;;;19.17;41.41;100511.25;4987105;28;20049;-74
2023/01/13 10:28:54;;;;;;;8.68;2.08;;;;;;;19.13;41.26;100509.03;4992673;28;19913;-73
2023/01/13 10:31:20;;;;;;;9.00;1.85;;;;;;;19.08;41.41;100508.63;4985110;28;20061;-70
2023/01/13 10:33:48;;;;;;;13.20;2.05;;;;;;;19.09;41.61;100520.84;4983664;28;20482;-71
2023/01/13 10:36:20;;;;;;;8.23;2.05;;;;;;;19.10;41.58;100535.72;4980198;28;20034;-72
2023/01/13 10:38:48;;;;;;;8.82;2.08;;;;;;;19.03;41.52;100528.34;4994527;28;20042;-71
2023/01/13 10:41:13;;;;;;;8.25;1.90;;;;;;;19.09;41.39;100541.97;4981750;28;20137;-71
2023/01/13 10:43:41;;;;;;;7.83;2.10;;;;;;;19.04;41.24;100560.88;4981547;28;20140;-71
2023/01/13 10:46:14;;;;;;;8.30;2.10;;;;;;;19.03;41.30;100553.94;4996642;28;20969;-70
2023/01/13 10:48:42;;;;;;;6.40;1.75;;;;;;;19.07;41.23;100562.41;4996427;28;20148;-71
2023/01/13 10:51:21;;;;;;;6.45;1.85;;;;;;;19.05;41.33;100567.00;4998904;28;20033;-69
2023/01/13 10:54:01;;;;;;;8.00;1.85;;;;;;;19.05;41.54;100565.19;4995850;28;20117;-71
2023/01/13 10:56:33;;;;;;;6.82;1.85;;;;;;;19.05;41.69;100573.09;4987885;28;20034;-71
2023/01/13 10:59:27;;;;;;;10.00;1.90;;;;;;;19.04;41.72;100558.22;4980683;28;20121;-68
2023/01/13 11:02:08;;;;;;;;;;;;;;;19.12;41.70;100557.53;4982086;28;20085;-65
2023/01/13 11:04:38;;;;;;;9.73;2.20;;;;;;;19.04;41.81;100558.22;4983462;28;19914;-69
2023/01/13 11:07:16;;;;;;;10.90;2.78;;;;;;;19.02;41.86;100549.63;4980782;28;20041;-72
2023/01/13 11:09:42;;;;;;;9.40;2.97;;;;;;;19.05;41.84;100569.66;4985906;28;20050;-68
2023/01/13 11:12:29;;;;;;;8.82;3.15;;;;;;;19.06;41.84;100552.81;4994483;28;20038;-69
2023/01/13 11:14:56;;;;;;;10.25;3.22;;;;;;;19.02;41.61;100557.53;4984507;28;20026;-70
2023/01/13 11:17:33;;;;;;;8.80;2.50;;;;;;;19.00;41.80;100554.19;4985586;28;20482;-69
2023/01/13 11:20:10;;;;;;;8.98;2.35;;;;;;;19.00;41.84;100568.22;4986662;28;20034;-69
2023/01/13 11:22:42;;;;;;;9.60;2.83;;;;;;;19.01;41.89;100562.00;4990577;28;20048;-69
2023/01/13 11:25:19;;;;;;;7.30;2.33;;;;;;;19.01;41.73;100559.34;4999272;28;20033;-70
2023/01/13 11:28:01;;;;;;;8.95;2.70;;;;;;;18.99;41.71;100555.16;4999122;28;20061;-69
2023/01/13 11:30:35;;;;;;;7.90;2.65;;;;;;;19.03;41.84;100582.97;4986740;28;20089;-71
2023/01/13 11:33:05;;;;;;;10.93;2.22;;;;;;;19.00;42.00;100556.84;4987741;28;20057;-74
2023/01/13 11:35:34;;;;;;;8.35;2.33;;;;;;;19.04;41.97;100574.06;4995091;28;20038;-71
2023/01/13 11:38:09;;;;;;;6.53;2.10;;;;;;;19.02;41.95;100579.47;4985849;28;20498;-71
2023/01/13 11:40:49;;;;;;;9.93;2.60;;;;;;;19.04;41.72;100576.72;4993626;28;20085;-72
2023/01/13 11:43:33;;;;;;;9.00;2.20;;;;;;;19.04;41.98;100589.91;5000475;28;20037;-71
2023/01/13 11:46:00;;;;;;;9.45;2.35;;;;;;;19.03;41.84;100598.81;4982963;28;20121;-70
2023/01/13 11:48:30;;;;;;;8.75;2.50;;;;;;;18.99;42.06;100594.78;4984317;28;20034;-70
2023/01/13 11:51:01;;;;;;;8.52;1.95;;;;;;;19.00;42.02;100593.81;4981548;28;20033;-69
2023/01/13 11:53:57;;;;;;;7.97;2.08;;;;;;;19.00;42.00;100597.28;4984262;28;20030;-71
2023/01/13 11:56:26;;;;;;;7.40;2.17;;;;;;;19.06;41.89;100602.97;4990014;28;20037;-68
2023/01/13 11:59:00;;;;;;;7.97;2.05;;;;;;;19.03;41.96;100593.53;4991632;28;20037;-70
2023/01/13 12:01:34;;;;;;;9.65;2.38;;;;;;;19.00;42.15;100599.09;4989298;28;20553;-70
2023/01/13 12:04:18;;;;;;;6.93;1.92;;;;;;;19.01;41.85;100596.31;4992116;28;20044;-73
2023/01/13 12:06:45;;;;;;;9.68;2.20;;;;;;;19.03;41.85;100612.03;5002315;28;20497;-72
2023/01/13 12:09:36;;;;;;;10.52;2.42;;;;;;;19.04;41.78;100608.41;4989210;28;20188;-70
2023/01/13 12:12:34;;;;;;;7.85;2.17;;;;;;;19.04;41.74;100621.59;4985084;28;20103;-73
2023/01/13 12:15:25;;;;;;;7.25;2.20;;;;;;;19.03;41.83;100628.72;4989721;28;20033;-71
2023/01/13 12:18:20;;;;;;;8.70;2.15;;;;;;;19.03;41.64;100606.75;4992569;28;20045;-70
2023/01/13 12:20:58;;;;;;;9.18;2.05;;;;;;;19.00;41.66;100620.22;5003034;28;20091;-70
2023/01/13 12:23:33;;;;;;;9.80;2.58;;;;;;;19.03;41.56;100615.50;5003815;28;20470;-70